A4OAJ HAAB-FZIC
Flight info
| Callsign | A4OAJ |
|---|---|
| Flight time | 2h 33m |
| Altitude | 36000 |
| Route | ETGOM2A ETGOM UL432 LOV/N0453F380 DCT PATAR UN553 NALOS UT136 BUN/N0421F240 H1 OSBID DCT LEVKO LEVKO2C |
| Aircraft | A319/M-SDE3FGHIRWY/LB1 |
Departure
| Time | 2026-04-28 09:54 |
|---|---|
| Airport | Addis Ababa Bole International Airport (HAAB) |
Arrival
| Time | 2026-04-28 12:28 |
|---|---|
| Airport | Bangoka International Airport (FZIC) |
| Time | Latitude | Longitude | Altitude | Speed | Heading |
|---|---|---|---|---|---|
| 2026-04-28 09:40 | 8.98349 | 38.80064 | 7626 ft | 0 kts | 341° |
| 2026-04-28 09:43 | 8.98347 | 38.80064 | 7627 ft | 2 kts | 342° |
| 2026-04-28 09:43 | 8.98333 | 38.80069 | 7628 ft | 2 kts | 342° |
| 2026-04-28 09:44 | 8.98318 | 38.80074 | 7629 ft | 2 kts | 341° |
| 2026-04-28 09:44 | 8.98305 | 38.80078 | 7630 ft | 0 kts | 342° |
| 2026-04-28 09:44 | 8.98296 | 38.80082 | 7630 ft | 2 kts | 312° |
| 2026-04-28 09:44 | 8.98290 | 38.80096 | 7630 ft | 2 kts | 267° |
| 2026-04-28 09:45 | 8.98291 | 38.80103 | 7630 ft | 1 kts | 244° |
| 2026-04-28 09:45 | 8.98293 | 38.80107 | 7630 ft | 0 kts | 251° |
| 2026-04-28 09:47 | 8.98288 | 38.80091 | 7630 ft | 5 kts | 252° |
| 2026-04-28 09:47 | 8.98271 | 38.80037 | 7632 ft | 10 kts | 253° |
| 2026-04-28 09:47 | 8.98245 | 38.79950 | 7635 ft | 14 kts | 253° |
| 2026-04-28 09:48 | 8.98220 | 38.79863 | 7639 ft | 11 kts | 255° |
| 2026-04-28 09:48 | 8.98201 | 38.79787 | 7641 ft | 10 kts | 257° |
| 2026-04-28 09:48 | 8.98161 | 38.79707 | 7642 ft | 15 kts | 234° |
| 2026-04-28 09:48 | 8.98115 | 38.79578 | 7638 ft | 22 kts | 255° |
| 2026-04-28 09:49 | 8.98068 | 38.79428 | 7634 ft | 22 kts | 255° |
| 2026-04-28 09:49 | 8.98028 | 38.79286 | 7631 ft | 19 kts | 250° |
| 2026-04-28 09:49 | 8.97992 | 38.79168 | 7632 ft | 15 kts | 250° |
| 2026-04-28 09:49 | 8.97965 | 38.79078 | 7635 ft | 11 kts | 254° |
| 2026-04-28 09:50 | 8.97944 | 38.79003 | 7637 ft | 12 kts | 254° |
| 2026-04-28 09:50 | 8.97920 | 38.78920 | 7638 ft | 11 kts | 251° |
| 2026-04-28 09:50 | 8.97895 | 38.78850 | 7638 ft | 9 kts | 256° |
| 2026-04-28 09:50 | 8.97877 | 38.78781 | 7638 ft | 11 kts | 251° |
| 2026-04-28 09:51 | 8.97810 | 38.78748 | 7636 ft | 14 kts | 166° |
| 2026-04-28 09:51 | 8.97717 | 38.78763 | 7633 ft | 12 kts | 149° |
| 2026-04-28 09:51 | 8.97630 | 38.78797 | 7630 ft | 13 kts | 156° |
| 2026-04-28 09:51 | 8.97557 | 38.78776 | 7629 ft | 13 kts | 239° |
| 2026-04-28 09:52 | 8.97525 | 38.78665 | 7625 ft | 18 kts | 256° |
| 2026-04-28 09:52 | 8.97482 | 38.78538 | 7618 ft | 19 kts | 251° |
| 2026-04-28 09:52 | 8.97447 | 38.78410 | 7614 ft | 18 kts | 255° |
| 2026-04-28 09:52 | 8.97406 | 38.78293 | 7608 ft | 17 kts | 228° |
| 2026-04-28 09:53 | 8.97302 | 38.78319 | 7601 ft | 17 kts | 142° |
| 2026-04-28 09:53 | 8.97252 | 38.78411 | 7604 ft | 11 kts | 78° |
| 2026-04-28 09:53 | 8.97280 | 38.78510 | 7614 ft | 33 kts | 74° |
| 2026-04-28 09:53 | 8.97405 | 38.78951 | 7628 ft | 98 kts | 73° |
| 2026-04-28 09:54 | 8.97663 | 38.79825 | 7634 ft | 158 kts | 75° |
| 2026-04-28 09:54 | 8.98006 | 38.81033 | 7906 ft | 187 kts | 76° |
| 2026-04-28 09:54 | 8.98310 | 38.82308 | 8549 ft | 189 kts | 82° |
| 2026-04-28 09:54 | 8.98538 | 38.83584 | 9224 ft | 186 kts | 83° |
| 2026-04-28 09:55 | 8.98750 | 38.84880 | 9591 ft | 192 kts | 82° |
| 2026-04-28 09:55 | 8.98988 | 38.86265 | 9868 ft | 203 kts | 81° |
| 2026-04-28 09:55 | 8.99243 | 38.87707 | 10168 ft | 213 kts | 81° |
| 2026-04-28 09:55 | 8.99489 | 38.89192 | 10584 ft | 216 kts | 87° |
| 2026-04-28 09:56 | 8.99122 | 38.90610 | 11014 ft | 215 kts | 127° |
| 2026-04-28 09:56 | 8.97937 | 38.91499 | 11485 ft | 216 kts | 158° |
| 2026-04-28 09:56 | 8.96414 | 38.91658 | 11846 ft | 223 kts | 190° |
| 2026-04-28 09:56 | 8.95016 | 38.90984 | 12201 ft | 228 kts | 221° |
| 2026-04-28 09:57 | 8.93909 | 38.89835 | 12561 ft | 231 kts | 227° |
| 2026-04-28 09:57 | 8.92905 | 38.88521 | 12821 ft | 240 kts | 246° |
| 2026-04-28 09:57 | 8.92610 | 38.86872 | 12997 ft | 250 kts | 279° |
| 2026-04-28 09:57 | 8.93267 | 38.85230 | 13252 ft | 257 kts | 309° |
| 2026-04-28 09:58 | 8.94424 | 38.83799 | 13534 ft | 270 kts | 312° |
| 2026-04-28 09:58 | 8.95660 | 38.82289 | 13786 ft | 284 kts | 311° |
| 2026-04-28 09:58 | 8.96956 | 38.80718 | 14033 ft | 298 kts | 313° |
| 2026-04-28 09:58 | 8.98422 | 38.79176 | 14275 ft | 312 kts | 318° |
| 2026-04-28 09:59 | 9.00075 | 38.77677 | 14512 ft | 326 kts | 320° |
| 2026-04-28 09:59 | 9.01836 | 38.76130 | 14741 ft | 340 kts | 320° |
| 2026-04-28 09:59 | 9.03655 | 38.74536 | 14968 ft | 353 kts | 320° |
| 2026-04-28 09:59 | 9.05551 | 38.72871 | 15206 ft | 366 kts | 320° |
| 2026-04-28 10:00 | 9.07499 | 38.71155 | 15603 ft | 373 kts | 320° |
| 2026-04-28 10:00 | 9.09455 | 38.69430 | 16104 ft | 376 kts | 320° |
| 2026-04-28 10:00 | 9.11451 | 38.67672 | 16593 ft | 379 kts | 320° |
| 2026-04-28 10:00 | 9.13452 | 38.65915 | 17054 ft | 382 kts | 320° |
| 2026-04-28 10:01 | 9.15467 | 38.64143 | 17517 ft | 386 kts | 320° |
| 2026-04-28 10:01 | 9.17501 | 38.62350 | 17966 ft | 390 kts | 320° |
| 2026-04-28 10:01 | 9.19551 | 38.60540 | 18459 ft | 392 kts | 320° |
| 2026-04-28 10:01 | 9.21602 | 38.58726 | 18950 ft | 394 kts | 320° |
| 2026-04-28 10:02 | 9.23670 | 38.56896 | 19414 ft | 396 kts | 320° |
| 2026-04-28 10:02 | 9.25742 | 38.55066 | 19855 ft | 399 kts | 320° |
| 2026-04-28 10:02 | 9.27748 | 38.53081 | 20262 ft | 403 kts | 308° |
| 2026-04-28 10:02 | 9.29089 | 38.50592 | 20682 ft | 406 kts | 288° |
| 2026-04-28 10:03 | 9.29546 | 38.47789 | 21118 ft | 407 kts | 269° |
| 2026-04-28 10:03 | 9.29066 | 38.44995 | 21512 ft | 408 kts | 249° |
| 2026-04-28 10:03 | 9.27695 | 38.42498 | 21893 ft | 409 kts | 231° |
| 2026-04-28 10:03 | 9.25899 | 38.40271 | 22279 ft | 411 kts | 233° |
| 2026-04-28 10:04 | 9.24408 | 38.37781 | 22619 ft | 415 kts | 242° |
| 2026-04-28 10:04 | 9.23084 | 38.35175 | 23002 ft | 418 kts | 243° |
| 2026-04-28 10:04 | 9.21799 | 38.32509 | 23364 ft | 421 kts | 244° |
| 2026-04-28 10:04 | 9.20542 | 38.29830 | 23724 ft | 423 kts | 244° |
| 2026-04-28 10:05 | 9.19285 | 38.27121 | 24081 ft | 426 kts | 244° |
| 2026-04-28 10:05 | 9.18022 | 38.24389 | 24432 ft | 429 kts | 244° |
| 2026-04-28 10:05 | 9.16765 | 38.21669 | 24797 ft | 431 kts | 244° |
| 2026-04-28 10:05 | 9.15480 | 38.18888 | 25146 ft | 433 kts | 244° |
| 2026-04-28 10:06 | 9.14203 | 38.16126 | 25501 ft | 435 kts | 244° |
| 2026-04-28 10:06 | 9.12919 | 38.13348 | 25833 ft | 437 kts | 244° |
| 2026-04-28 10:06 | 9.11631 | 38.10563 | 26159 ft | 440 kts | 244° |
| 2026-04-28 10:06 | 9.10333 | 38.07755 | 26503 ft | 442 kts | 244° |
| 2026-04-28 10:07 | 9.09030 | 38.04940 | 26846 ft | 444 kts | 244° |
| 2026-04-28 10:07 | 9.07717 | 38.02105 | 27183 ft | 446 kts | 244° |
| 2026-04-28 10:07 | 9.06429 | 37.99253 | 27501 ft | 448 kts | 248° |
| 2026-04-28 10:07 | 9.05546 | 37.96217 | 27805 ft | 452 kts | 259° |
| 2026-04-28 10:08 | 9.05260 | 37.93048 | 28120 ft | 454 kts | 271° |
| 2026-04-28 10:08 | 9.05521 | 37.89873 | 28416 ft | 456 kts | 277° |
| 2026-04-28 10:08 | 9.05942 | 37.86704 | 28711 ft | 459 kts | 278° |
| 2026-04-28 10:08 | 9.06395 | 37.83472 | 28999 ft | 462 kts | 278° |
| 2026-04-28 10:09 | 9.06722 | 37.80277 | 29279 ft | 464 kts | 269° |
| 2026-04-28 10:09 | 9.06159 | 37.77081 | 29589 ft | 465 kts | 249° |
| 2026-04-28 10:09 | 9.04630 | 37.74228 | 29963 ft | 463 kts | 232° |
| 2026-04-28 10:09 | 9.02373 | 37.71886 | 30266 ft | 463 kts | 216° |
| 2026-04-28 10:10 | 8.99610 | 37.70259 | 30609 ft | 461 kts | 201° |
| 2026-04-28 10:10 | 8.96491 | 37.69430 | 30991 ft | 458 kts | 185° |
| 2026-04-28 10:10 | 8.93317 | 37.69253 | 31397 ft | 456 kts | 180° |
| 2026-04-28 10:10 | 8.90146 | 37.69166 | 31732 ft | 458 kts | 180° |
| 2026-04-28 10:11 | 8.86944 | 37.69080 | 32070 ft | 459 kts | 180° |
| 2026-04-28 10:11 | 8.83758 | 37.68980 | 32435 ft | 458 kts | 180° |
| 2026-04-28 10:11 | 8.80532 | 37.68868 | 32809 ft | 458 kts | 181° |
| 2026-04-28 10:11 | 8.77360 | 37.68750 | 33200 ft | 458 kts | 181° |
| 2026-04-28 10:12 | 8.74162 | 37.68626 | 33608 ft | 457 kts | 181° |
| 2026-04-28 10:12 | 8.71006 | 37.68502 | 34030 ft | 455 kts | 181° |
| 2026-04-28 10:12 | 8.67842 | 37.68375 | 34445 ft | 454 kts | 181° |
| 2026-04-28 10:12 | 8.64649 | 37.68246 | 34823 ft | 453 kts | 181° |
| 2026-04-28 10:13 | 8.61505 | 37.68119 | 35145 ft | 453 kts | 181° |
| 2026-04-28 10:13 | 8.58328 | 37.67992 | 35426 ft | 454 kts | 181° |
| 2026-04-28 10:13 | 8.55151 | 37.67864 | 35674 ft | 455 kts | 180° |
| 2026-04-28 10:13 | 8.51978 | 37.67736 | 35909 ft | 456 kts | 180° |
| 2026-04-28 10:14 | 8.48781 | 37.67608 | 36115 ft | 458 kts | 180° |
| 2026-04-28 10:14 | 8.45610 | 37.67480 | 36319 ft | 459 kts | 180° |
| 2026-04-28 10:14 | 8.39175 | 37.67222 | 36345 ft | 460 kts | 180° |
| 2026-04-28 10:15 | 8.32784 | 37.66965 | 36337 ft | 460 kts | 180° |
| 2026-04-28 10:15 | 8.26342 | 37.66706 | 36334 ft | 460 kts | 181° |
| 2026-04-28 10:16 | 8.19928 | 37.66447 | 36333 ft | 461 kts | 180° |
| 2026-04-28 10:16 | 8.13509 | 37.66188 | 36344 ft | 461 kts | 180° |
| 2026-04-28 10:17 | 8.07072 | 37.65929 | 36360 ft | 460 kts | 181° |
| 2026-04-28 10:17 | 8.00653 | 37.65670 | 36376 ft | 460 kts | 180° |
| 2026-04-28 10:18 | 7.94246 | 37.65413 | 36374 ft | 460 kts | 180° |
| 2026-04-28 10:18 | 7.87821 | 37.65154 | 36373 ft | 461 kts | 181° |
| 2026-04-28 10:19 | 7.81378 | 37.64895 | 36384 ft | 461 kts | 180° |
| 2026-04-28 10:19 | 7.74956 | 37.64636 | 36395 ft | 461 kts | 181° |
| 2026-04-28 10:20 | 7.68472 | 37.64375 | 36371 ft | 461 kts | 180° |
| 2026-04-28 10:20 | 7.62074 | 37.64118 | 36357 ft | 461 kts | 180° |
| 2026-04-28 10:21 | 7.55617 | 37.63859 | 36338 ft | 461 kts | 180° |
| 2026-04-28 10:21 | 7.49185 | 37.63600 | 36320 ft | 460 kts | 181° |
| 2026-04-28 10:22 | 7.42737 | 37.63341 | 36318 ft | 460 kts | 181° |
| 2026-04-28 10:22 | 7.36289 | 37.63081 | 36311 ft | 460 kts | 181° |
| 2026-04-28 10:23 | 7.29896 | 37.62824 | 36309 ft | 460 kts | 181° |
| 2026-04-28 10:23 | 7.23480 | 37.62566 | 36303 ft | 461 kts | 181° |
| 2026-04-28 10:24 | 7.17021 | 37.62304 | 36284 ft | 462 kts | 181° |
| 2026-04-28 10:24 | 7.10541 | 37.62041 | 36277 ft | 469 kts | 181° |
| 2026-04-28 10:25 | 7.03957 | 37.61771 | 36266 ft | 478 kts | 181° |
| 2026-04-28 10:25 | 6.97234 | 37.61497 | 36237 ft | 481 kts | 181° |
| 2026-04-28 10:26 | 6.90584 | 37.60723 | 36237 ft | 483 kts | 190° |
| 2026-04-28 10:26 | 6.84011 | 37.58969 | 36247 ft | 483 kts | 199° |
| 2026-04-28 10:27 | 6.77840 | 37.56303 | 36249 ft | 484 kts | 207° |
| 2026-04-28 10:27 | 6.71891 | 37.53127 | 36249 ft | 484 kts | 208° |
| 2026-04-28 10:28 | 6.65925 | 37.49913 | 36247 ft | 484 kts | 207° |
| 2026-04-28 10:29 | 6.57003 | 37.45128 | 36217 ft | 484 kts | 207° |
| 2026-04-28 10:29 | 6.51030 | 37.41931 | 36198 ft | 484 kts | 207° |
| 2026-04-28 10:30 | 6.45061 | 37.38740 | 36192 ft | 484 kts | 207° |
| 2026-04-28 10:30 | 6.39134 | 37.35571 | 36205 ft | 483 kts | 207° |
| 2026-04-28 10:31 | 6.33160 | 37.32359 | 36205 ft | 483 kts | 207° |
| 2026-04-28 10:31 | 6.27234 | 37.29168 | 36198 ft | 484 kts | 207° |
| 2026-04-28 10:32 | 6.21290 | 37.25982 | 36187 ft | 484 kts | 207° |
| 2026-04-28 10:32 | 6.15324 | 37.22794 | 36182 ft | 484 kts | 207° |
| 2026-04-28 10:33 | 6.09347 | 37.19603 | 36189 ft | 484 kts | 207° |
| 2026-04-28 10:33 | 6.03394 | 37.16425 | 36190 ft | 484 kts | 207° |
| 2026-04-28 10:34 | 5.97449 | 37.13253 | 36182 ft | 484 kts | 207° |
| 2026-04-28 10:34 | 5.91481 | 37.10071 | 36157 ft | 484 kts | 207° |
| 2026-04-28 10:35 | 5.85506 | 37.06895 | 36117 ft | 484 kts | 207° |
| 2026-04-28 10:35 | 5.79515 | 37.03714 | 36079 ft | 484 kts | 207° |
| 2026-04-28 10:36 | 5.73581 | 37.00557 | 36054 ft | 484 kts | 207° |
| 2026-04-28 10:36 | 5.67603 | 36.97374 | 36046 ft | 484 kts | 207° |
| 2026-04-28 10:37 | 5.61655 | 36.94206 | 36060 ft | 484 kts | 207° |
| 2026-04-28 10:37 | 5.55699 | 36.91034 | 36075 ft | 484 kts | 207° |
| 2026-04-28 10:38 | 5.49757 | 36.87869 | 36066 ft | 483 kts | 207° |
| 2026-04-28 10:38 | 5.43791 | 36.84694 | 36067 ft | 483 kts | 207° |
| 2026-04-28 10:39 | 5.37866 | 36.81540 | 36067 ft | 483 kts | 207° |
| 2026-04-28 10:39 | 5.31889 | 36.78360 | 36070 ft | 483 kts | 207° |
| 2026-04-28 10:40 | 5.25950 | 36.75201 | 36074 ft | 483 kts | 207° |
| 2026-04-28 10:40 | 5.20009 | 36.72040 | 36064 ft | 483 kts | 207° |
| 2026-04-28 10:41 | 5.14058 | 36.68875 | 36042 ft | 483 kts | 207° |
| 2026-04-28 10:41 | 5.08100 | 36.65707 | 36015 ft | 482 kts | 207° |
| 2026-04-28 10:42 | 5.02142 | 36.62540 | 35998 ft | 482 kts | 207° |
| 2026-04-28 10:42 | 4.96212 | 36.59390 | 35988 ft | 482 kts | 207° |
| 2026-04-28 10:43 | 4.90255 | 36.56224 | 35996 ft | 482 kts | 207° |
| 2026-04-28 10:43 | 4.84295 | 36.53070 | 35989 ft | 482 kts | 207° |
| 2026-04-28 10:44 | 4.78345 | 36.49922 | 35987 ft | 482 kts | 207° |
| 2026-04-28 10:44 | 4.72437 | 36.46788 | 35980 ft | 482 kts | 207° |
| 2026-04-28 10:45 | 4.66498 | 36.43634 | 35966 ft | 482 kts | 207° |
| 2026-04-28 10:45 | 4.60568 | 36.40488 | 35959 ft | 482 kts | 207° |
| 2026-04-28 10:46 | 4.54612 | 36.37327 | 35952 ft | 482 kts | 207° |
| 2026-04-28 10:46 | 4.48663 | 36.34166 | 35936 ft | 482 kts | 207° |
| 2026-04-28 10:47 | 4.42724 | 36.30983 | 35925 ft | 482 kts | 207° |
| 2026-04-28 10:47 | 4.36825 | 36.27837 | 35919 ft | 482 kts | 207° |
| 2026-04-28 10:48 | 4.30884 | 36.24681 | 35913 ft | 482 kts | 207° |
| 2026-04-28 10:48 | 4.24934 | 36.21525 | 35909 ft | 481 kts | 207° |
| 2026-04-28 10:49 | 4.19027 | 36.18392 | 35906 ft | 482 kts | 207° |
| 2026-04-28 10:49 | 4.13072 | 36.15233 | 35903 ft | 482 kts | 207° |
| 2026-04-28 10:50 | 4.07155 | 36.12094 | 35899 ft | 482 kts | 207° |
| 2026-04-28 10:50 | 4.01206 | 36.08939 | 35897 ft | 482 kts | 207° |
| 2026-04-28 10:51 | 3.95294 | 36.05823 | 35897 ft | 482 kts | 207° |
| 2026-04-28 10:51 | 3.89342 | 36.02694 | 35892 ft | 482 kts | 207° |
| 2026-04-28 10:52 | 3.83367 | 35.99564 | 35890 ft | 482 kts | 206° |
| 2026-04-28 10:52 | 3.77417 | 35.96442 | 35884 ft | 482 kts | 207° |
| 2026-04-28 10:53 | 3.71491 | 35.93324 | 35877 ft | 482 kts | 207° |
| 2026-04-28 10:53 | 3.65516 | 35.90178 | 35877 ft | 482 kts | 207° |
| 2026-04-28 10:54 | 3.59582 | 35.87053 | 35887 ft | 482 kts | 207° |
| 2026-04-28 10:54 | 3.53634 | 35.83919 | 35886 ft | 482 kts | 207° |
| 2026-04-28 10:55 | 3.47696 | 35.80792 | 35896 ft | 482 kts | 206° |
| 2026-04-28 10:55 | 3.41771 | 35.77672 | 35901 ft | 481 kts | 206° |
| 2026-04-28 10:56 | 3.35843 | 35.74549 | 35912 ft | 481 kts | 206° |
| 2026-04-28 10:56 | 3.29882 | 35.71408 | 35918 ft | 482 kts | 207° |
| 2026-04-28 10:57 | 3.23949 | 35.68279 | 35921 ft | 482 kts | 207° |
| 2026-04-28 10:57 | 3.17994 | 35.65139 | 35919 ft | 482 kts | 207° |
| 2026-04-28 10:58 | 3.12260 | 35.61669 | 35915 ft | 483 kts | 213° |
| 2026-04-28 10:58 | 3.06924 | 35.57572 | 35922 ft | 484 kts | 220° |
| 2026-04-28 10:59 | 3.02017 | 35.52973 | 35930 ft | 485 kts | 223° |
| 2026-04-28 10:59 | 2.97160 | 35.48249 | 35941 ft | 485 kts | 223° |
| 2026-04-28 11:00 | 2.92316 | 35.43549 | 35960 ft | 485 kts | 223° |
| 2026-04-28 11:00 | 2.87469 | 35.38868 | 35972 ft | 485 kts | 223° |
| 2026-04-28 11:01 | 2.82596 | 35.34182 | 35983 ft | 485 kts | 223° |
| 2026-04-28 11:01 | 2.77724 | 35.29453 | 35988 ft | 485 kts | 223° |
| 2026-04-28 11:02 | 2.72877 | 35.24752 | 35992 ft | 485 kts | 223° |
| 2026-04-28 11:02 | 2.68011 | 35.20043 | 36003 ft | 485 kts | 223° |
| 2026-04-28 11:03 | 2.63180 | 35.15371 | 36015 ft | 486 kts | 223° |
| 2026-04-28 11:03 | 2.58302 | 35.10651 | 36028 ft | 485 kts | 223° |
| 2026-04-28 11:04 | 2.53452 | 35.05962 | 36039 ft | 485 kts | 223° |
| 2026-04-28 11:04 | 2.48924 | 35.00996 | 36044 ft | 485 kts | 233° |
| 2026-04-28 11:05 | 2.45424 | 34.95216 | 36090 ft | 486 kts | 245° |
| 2026-04-28 11:05 | 2.43166 | 34.88880 | 36136 ft | 486 kts | 257° |
| 2026-04-28 11:06 | 2.41875 | 34.82254 | 36169 ft | 486 kts | 260° |
| 2026-04-28 11:06 | 2.40695 | 34.75594 | 36193 ft | 486 kts | 260° |
| 2026-04-28 11:07 | 2.39496 | 34.68966 | 36192 ft | 486 kts | 260° |
| 2026-04-28 11:07 | 2.38280 | 34.62330 | 36172 ft | 486 kts | 260° |
| 2026-04-28 11:08 | 2.37057 | 34.55682 | 36148 ft | 486 kts | 260° |
| 2026-04-28 11:08 | 2.35843 | 34.49084 | 36120 ft | 486 kts | 260° |
| 2026-04-28 11:09 | 2.34614 | 34.42412 | 36105 ft | 487 kts | 260° |
| 2026-04-28 11:09 | 2.33394 | 34.35793 | 36101 ft | 487 kts | 260° |
| 2026-04-28 11:10 | 2.32172 | 34.29137 | 36096 ft | 487 kts | 260° |
| 2026-04-28 11:10 | 2.30946 | 34.22466 | 36095 ft | 487 kts | 260° |
| 2026-04-28 11:11 | 2.29724 | 34.15827 | 36093 ft | 486 kts | 260° |
| 2026-04-28 11:11 | 2.28506 | 34.09216 | 36088 ft | 486 kts | 260° |
| 2026-04-28 11:12 | 2.27281 | 34.02573 | 36086 ft | 486 kts | 260° |
| 2026-04-28 11:12 | 2.26057 | 33.95931 | 36083 ft | 487 kts | 260° |
| 2026-04-28 11:13 | 2.24836 | 33.89305 | 36078 ft | 487 kts | 260° |
| 2026-04-28 11:13 | 2.23602 | 33.82651 | 36076 ft | 487 kts | 260° |
| 2026-04-28 11:14 | 2.22373 | 33.76028 | 36074 ft | 487 kts | 260° |
| 2026-04-28 11:14 | 2.21142 | 33.69376 | 36070 ft | 487 kts | 260° |
| 2026-04-28 11:15 | 2.19912 | 33.62722 | 36068 ft | 487 kts | 260° |
| 2026-04-28 11:15 | 2.18683 | 33.56079 | 36068 ft | 487 kts | 260° |
| 2026-04-28 11:16 | 2.17455 | 33.49440 | 36067 ft | 488 kts | 259° |
| 2026-04-28 11:16 | 2.16216 | 33.42749 | 36069 ft | 488 kts | 260° |
| 2026-04-28 11:17 | 2.14991 | 33.36131 | 36069 ft | 488 kts | 260° |
| 2026-04-28 11:17 | 2.13754 | 33.29422 | 36070 ft | 488 kts | 259° |
| 2026-04-28 11:18 | 2.12533 | 33.22799 | 36068 ft | 488 kts | 259° |
| 2026-04-28 11:18 | 2.11302 | 33.16140 | 36069 ft | 488 kts | 259° |
| 2026-04-28 11:19 | 2.10070 | 33.09492 | 36065 ft | 487 kts | 259° |
| 2026-04-28 11:19 | 2.08837 | 33.02846 | 36062 ft | 487 kts | 259° |
| 2026-04-28 11:20 | 2.07597 | 32.96159 | 36061 ft | 488 kts | 259° |
| 2026-04-28 11:20 | 2.06366 | 32.89508 | 36060 ft | 488 kts | 259° |
| 2026-04-28 11:21 | 2.05135 | 32.82866 | 36059 ft | 488 kts | 259° |
| 2026-04-28 11:21 | 2.03908 | 32.76250 | 36057 ft | 487 kts | 259° |
| 2026-04-28 11:22 | 2.02670 | 32.69577 | 36056 ft | 487 kts | 259° |
| 2026-04-28 11:22 | 2.01437 | 32.62931 | 36056 ft | 487 kts | 259° |
| 2026-04-28 11:23 | 2.00204 | 32.56290 | 36054 ft | 487 kts | 259° |
| 2026-04-28 11:23 | 1.98967 | 32.49627 | 36054 ft | 487 kts | 259° |
| 2026-04-28 11:24 | 1.97733 | 32.42978 | 36053 ft | 487 kts | 259° |
| 2026-04-28 11:24 | 1.96501 | 32.36342 | 36056 ft | 487 kts | 259° |
| 2026-04-28 11:25 | 1.95273 | 32.29710 | 36058 ft | 487 kts | 259° |
| 2026-04-28 11:25 | 1.94036 | 32.23031 | 36060 ft | 487 kts | 259° |
| 2026-04-28 11:26 | 1.92811 | 32.16432 | 36060 ft | 486 kts | 259° |
| 2026-04-28 11:26 | 1.91587 | 32.09810 | 36060 ft | 486 kts | 260° |
| 2026-04-28 11:27 | 1.90704 | 32.03101 | 36061 ft | 486 kts | 263° |
| 2026-04-28 11:27 | 1.89945 | 31.96400 | 36067 ft | 486 kts | 263° |
| 2026-04-28 11:28 | 1.89155 | 31.89701 | 36070 ft | 486 kts | 263° |
| 2026-04-28 11:28 | 1.88368 | 31.82989 | 36071 ft | 486 kts | 263° |
| 2026-04-28 11:29 | 1.87599 | 31.76319 | 36076 ft | 486 kts | 263° |
| 2026-04-28 11:29 | 1.86827 | 31.69579 | 36074 ft | 487 kts | 263° |
| 2026-04-28 11:30 | 1.86060 | 31.62880 | 36069 ft | 487 kts | 263° |
| 2026-04-28 11:30 | 1.84906 | 31.52815 | 36065 ft | 487 kts | 263° |
| 2026-04-28 11:31 | 1.84137 | 31.46095 | 36056 ft | 487 kts | 263° |
| 2026-04-28 11:31 | 1.83371 | 31.39401 | 36046 ft | 487 kts | 263° |
| 2026-04-28 11:32 | 1.82600 | 31.32656 | 36037 ft | 487 kts | 263° |
| 2026-04-28 11:32 | 1.81839 | 31.25976 | 36025 ft | 487 kts | 263° |
| 2026-04-28 11:33 | 1.81073 | 31.19258 | 36019 ft | 488 kts | 263° |
| 2026-04-28 11:33 | 1.80309 | 31.12555 | 36021 ft | 488 kts | 263° |
| 2026-04-28 11:34 | 1.79539 | 31.05827 | 36022 ft | 488 kts | 263° |
| 2026-04-28 11:34 | 1.78507 | 30.99157 | 36024 ft | 488 kts | 258° |
| 2026-04-28 11:35 | 1.76799 | 30.92610 | 36026 ft | 487 kts | 253° |
| 2026-04-28 11:35 | 1.74907 | 30.86110 | 36021 ft | 487 kts | 253° |
| 2026-04-28 11:36 | 1.73010 | 30.79631 | 36019 ft | 488 kts | 253° |
| 2026-04-28 11:36 | 1.71111 | 30.73120 | 36018 ft | 487 kts | 253° |
| 2026-04-28 11:37 | 1.69222 | 30.66618 | 36041 ft | 488 kts | 253° |
| 2026-04-28 11:37 | 1.67349 | 30.60168 | 36064 ft | 488 kts | 253° |
| 2026-04-28 11:38 | 1.65463 | 30.53659 | 36088 ft | 488 kts | 253° |
| 2026-04-28 11:38 | 1.63573 | 30.47142 | 36099 ft | 488 kts | 253° |
| 2026-04-28 11:39 | 1.61694 | 30.40662 | 36094 ft | 487 kts | 253° |
| 2026-04-28 11:39 | 1.59816 | 30.34175 | 36092 ft | 487 kts | 253° |
| 2026-04-28 11:40 | 1.57935 | 30.27653 | 36092 ft | 487 kts | 253° |
| 2026-04-28 11:40 | 1.56180 | 30.21137 | 36095 ft | 488 kts | 257° |
| 2026-04-28 11:41 | 1.54751 | 30.14512 | 36086 ft | 488 kts | 258° |
| 2026-04-28 11:41 | 1.53354 | 30.07900 | 36073 ft | 487 kts | 258° |
| 2026-04-28 11:42 | 1.51955 | 30.01292 | 36055 ft | 487 kts | 258° |
| 2026-04-28 11:42 | 1.50551 | 29.94682 | 36049 ft | 487 kts | 258° |
| 2026-04-28 11:43 | 1.49144 | 29.88063 | 36043 ft | 488 kts | 258° |
| 2026-04-28 11:43 | 1.47732 | 29.81421 | 36037 ft | 488 kts | 258° |
| 2026-04-28 11:44 | 1.46330 | 29.74820 | 36030 ft | 489 kts | 258° |
| 2026-04-28 11:44 | 1.44924 | 29.68197 | 36027 ft | 488 kts | 258° |
| 2026-04-28 11:45 | 1.43517 | 29.61557 | 36023 ft | 489 kts | 258° |
| 2026-04-28 11:45 | 1.42106 | 29.54945 | 36023 ft | 489 kts | 258° |
| 2026-04-28 11:46 | 1.40664 | 29.48315 | 36021 ft | 489 kts | 258° |
| 2026-04-28 11:46 | 1.39221 | 29.41663 | 36018 ft | 491 kts | 258° |
| 2026-04-28 11:47 | 1.37784 | 29.35018 | 36018 ft | 490 kts | 258° |
| 2026-04-28 11:47 | 1.36353 | 29.28360 | 36017 ft | 489 kts | 258° |
| 2026-04-28 11:48 | 1.34924 | 29.21722 | 36017 ft | 490 kts | 258° |
| 2026-04-28 11:48 | 1.33487 | 29.15053 | 36021 ft | 490 kts | 258° |
| 2026-04-28 11:49 | 1.32052 | 29.08403 | 36021 ft | 491 kts | 258° |
| 2026-04-28 11:49 | 1.30614 | 29.01743 | 36017 ft | 491 kts | 258° |
| 2026-04-28 11:50 | 1.29170 | 28.95121 | 36012 ft | 491 kts | 258° |
| 2026-04-28 11:50 | 1.27707 | 28.88456 | 36010 ft | 490 kts | 258° |
| 2026-04-28 11:51 | 1.26252 | 28.81806 | 36000 ft | 490 kts | 258° |
| 2026-04-28 11:51 | 1.24811 | 28.75209 | 35996 ft | 490 kts | 258° |
| 2026-04-28 11:52 | 1.23360 | 28.68558 | 35992 ft | 491 kts | 258° |
| 2026-04-28 11:52 | 1.21905 | 28.61895 | 35983 ft | 491 kts | 258° |
| 2026-04-28 11:53 | 1.20455 | 28.55261 | 35981 ft | 490 kts | 258° |
| 2026-04-28 11:53 | 1.18997 | 28.48590 | 35977 ft | 490 kts | 258° |
| 2026-04-28 11:54 | 1.17550 | 28.41964 | 35975 ft | 490 kts | 258° |
| 2026-04-28 11:54 | 1.16099 | 28.35322 | 35977 ft | 490 kts | 258° |
| 2026-04-28 11:55 | 1.14654 | 28.28679 | 35979 ft | 490 kts | 258° |
| 2026-04-28 11:55 | 1.13204 | 28.22016 | 35978 ft | 490 kts | 257° |
| 2026-04-28 11:56 | 1.11752 | 28.15367 | 35983 ft | 490 kts | 257° |
| 2026-04-28 11:56 | 1.10304 | 28.08742 | 35984 ft | 489 kts | 257° |
| 2026-04-28 11:57 | 1.08853 | 28.02109 | 35992 ft | 490 kts | 257° |
| 2026-04-28 11:57 | 1.07404 | 27.95484 | 36003 ft | 490 kts | 258° |
| 2026-04-28 11:58 | 1.05953 | 27.88844 | 36004 ft | 489 kts | 258° |
| 2026-04-28 11:58 | 1.04505 | 27.82223 | 36004 ft | 490 kts | 258° |
| 2026-04-28 11:59 | 1.03061 | 27.75615 | 36003 ft | 490 kts | 258° |
| 2026-04-28 11:59 | 1.01602 | 27.68944 | 36000 ft | 489 kts | 257° |
| 2026-04-28 12:00 | 1.00153 | 27.62328 | 35995 ft | 490 kts | 258° |
| 2026-04-28 12:00 | 0.98706 | 27.55711 | 35980 ft | 490 kts | 258° |
| 2026-04-28 12:01 | 0.97253 | 27.49067 | 35971 ft | 490 kts | 258° |
| 2026-04-28 12:01 | 0.95796 | 27.42410 | 35966 ft | 491 kts | 258° |
| 2026-04-28 12:02 | 0.94341 | 27.35753 | 35963 ft | 491 kts | 258° |
| 2026-04-28 12:02 | 0.92890 | 27.29095 | 35922 ft | 490 kts | 258° |
| 2026-04-28 12:03 | 0.92171 | 27.25796 | 35772 ft | 490 kts | 258° |
| 2026-04-28 12:03 | 0.91442 | 27.22458 | 35517 ft | 484 kts | 258° |
| 2026-04-28 12:03 | 0.90735 | 27.19220 | 35221 ft | 473 kts | 258° |
| 2026-04-28 12:03 | 0.90045 | 27.16066 | 34932 ft | 463 kts | 258° |
| 2026-04-28 12:04 | 0.89347 | 27.12915 | 34634 ft | 457 kts | 257° |
| 2026-04-28 12:04 | 0.88661 | 27.09849 | 34347 ft | 458 kts | 257° |
| 2026-04-28 12:04 | 0.87963 | 27.06721 | 34054 ft | 458 kts | 258° |
| 2026-04-28 12:04 | 0.87278 | 27.03627 | 33764 ft | 459 kts | 258° |
| 2026-04-28 12:05 | 0.86593 | 27.00522 | 33480 ft | 460 kts | 258° |
| 2026-04-28 12:05 | 0.85908 | 26.97407 | 33189 ft | 460 kts | 258° |
| 2026-04-28 12:05 | 0.85222 | 26.94277 | 32830 ft | 460 kts | 258° |
| 2026-04-28 12:05 | 0.84542 | 26.91170 | 32384 ft | 460 kts | 258° |
| 2026-04-28 12:06 | 0.83864 | 26.88069 | 31826 ft | 461 kts | 258° |
| 2026-04-28 12:06 | 0.83181 | 26.84945 | 31190 ft | 462 kts | 258° |
| 2026-04-28 12:06 | 0.82493 | 26.81802 | 30505 ft | 462 kts | 257° |
| 2026-04-28 12:06 | 0.81816 | 26.78715 | 29816 ft | 462 kts | 257° |
| 2026-04-28 12:07 | 0.81127 | 26.75568 | 29096 ft | 462 kts | 257° |
| 2026-04-28 12:07 | 0.80442 | 26.72441 | 28591 ft | 457 kts | 257° |
| 2026-04-28 12:07 | 0.79776 | 26.69397 | 28144 ft | 452 kts | 257° |
| 2026-04-28 12:07 | 0.79108 | 26.66343 | 27664 ft | 448 kts | 257° |
| 2026-04-28 12:08 | 0.78447 | 26.63320 | 27171 ft | 445 kts | 257° |
| 2026-04-28 12:08 | 0.77789 | 26.60311 | 26669 ft | 441 kts | 257° |
| 2026-04-28 12:08 | 0.77142 | 26.57351 | 26176 ft | 438 kts | 257° |
| 2026-04-28 12:08 | 0.76494 | 26.54388 | 25686 ft | 435 kts | 257° |
| 2026-04-28 12:09 | 0.75851 | 26.51449 | 25188 ft | 432 kts | 257° |
| 2026-04-28 12:09 | 0.75219 | 26.48556 | 24705 ft | 428 kts | 257° |
| 2026-04-28 12:09 | 0.74583 | 26.45652 | 24227 ft | 425 kts | 257° |
| 2026-04-28 12:09 | 0.73955 | 26.42781 | 23736 ft | 423 kts | 257° |
| 2026-04-28 12:10 | 0.73332 | 26.39934 | 23269 ft | 420 kts | 257° |
| 2026-04-28 12:10 | 0.72712 | 26.37095 | 22808 ft | 417 kts | 257° |
| 2026-04-28 12:10 | 0.72096 | 26.34279 | 22351 ft | 415 kts | 257° |
| 2026-04-28 12:10 | 0.71483 | 26.31460 | 21889 ft | 413 kts | 257° |
| 2026-04-28 12:11 | 0.70879 | 26.28684 | 21424 ft | 411 kts | 257° |
| 2026-04-28 12:11 | 0.70269 | 26.25884 | 20948 ft | 410 kts | 257° |
| 2026-04-28 12:11 | 0.69673 | 26.23153 | 20488 ft | 408 kts | 257° |
| 2026-04-28 12:11 | 0.69068 | 26.20389 | 20007 ft | 407 kts | 257° |
| 2026-04-28 12:12 | 0.68469 | 26.17602 | 19523 ft | 406 kts | 259° |
| 2026-04-28 12:12 | 0.68130 | 26.14815 | 19049 ft | 406 kts | 266° |
| 2026-04-28 12:12 | 0.68163 | 26.12039 | 18586 ft | 405 kts | 274° |
| 2026-04-28 12:12 | 0.68454 | 26.09227 | 18118 ft | 403 kts | 277° |
| 2026-04-28 12:13 | 0.68795 | 26.06470 | 17629 ft | 403 kts | 277° |
| 2026-04-28 12:13 | 0.69144 | 26.03693 | 17137 ft | 401 kts | 277° |
| 2026-04-28 12:13 | 0.69480 | 26.00964 | 16696 ft | 399 kts | 277° |
| 2026-04-28 12:13 | 0.69809 | 25.98236 | 16250 ft | 396 kts | 276° |
| 2026-04-28 12:14 | 0.70133 | 25.95508 | 15791 ft | 394 kts | 276° |
| 2026-04-28 12:14 | 0.70454 | 25.92798 | 15324 ft | 393 kts | 276° |
| 2026-04-28 12:14 | 0.70773 | 25.90092 | 14844 ft | 391 kts | 276° |
| 2026-04-28 12:14 | 0.71090 | 25.87404 | 14379 ft | 389 kts | 276° |
| 2026-04-28 12:15 | 0.71407 | 25.84714 | 13908 ft | 387 kts | 276° |
| 2026-04-28 12:15 | 0.71716 | 25.82086 | 13454 ft | 385 kts | 276° |
| 2026-04-28 12:15 | 0.72006 | 25.79432 | 12980 ft | 383 kts | 274° |
| 2026-04-28 12:15 | 0.72104 | 25.76778 | 12515 ft | 381 kts | 269° |
| 2026-04-28 12:16 | 0.71979 | 25.74130 | 12026 ft | 380 kts | 266° |
| 2026-04-28 12:16 | 0.71776 | 25.71534 | 11538 ft | 379 kts | 265° |
| 2026-04-28 12:16 | 0.71559 | 25.68926 | 11067 ft | 377 kts | 266° |
| 2026-04-28 12:16 | 0.71343 | 25.66297 | 10589 ft | 376 kts | 266° |
| 2026-04-28 12:17 | 0.71136 | 25.63741 | 10218 ft | 371 kts | 267° |
| 2026-04-28 12:17 | 0.70935 | 25.61192 | 10087 ft | 359 kts | 267° |
| 2026-04-28 12:17 | 0.70744 | 25.58768 | 9973 ft | 342 kts | 267° |
| 2026-04-28 12:17 | 0.70565 | 25.56493 | 9834 ft | 322 kts | 267° |
| 2026-04-28 12:18 | 0.70393 | 25.54272 | 9469 ft | 320 kts | 267° |
| 2026-04-28 12:18 | 0.70222 | 25.52045 | 9133 ft | 319 kts | 267° |
| 2026-04-28 12:18 | 0.70054 | 25.49868 | 8793 ft | 318 kts | 267° |
| 2026-04-28 12:18 | 0.69883 | 25.47652 | 8450 ft | 317 kts | 267° |
| 2026-04-28 12:19 | 0.69715 | 25.45489 | 8130 ft | 315 kts | 267° |
| 2026-04-28 12:19 | 0.69545 | 25.43298 | 7828 ft | 312 kts | 267° |
| 2026-04-28 12:19 | 0.69378 | 25.41157 | 7519 ft | 310 kts | 267° |
| 2026-04-28 12:19 | 0.69266 | 25.39723 | 7294 ft | 309 kts | 267° |
| 2026-04-28 12:20 | 0.69047 | 25.36906 | 6877 ft | 307 kts | 267° |
| 2026-04-28 12:20 | 0.68883 | 25.34775 | 6627 ft | 303 kts | 266° |
| 2026-04-28 12:20 | 0.68720 | 25.32679 | 6259 ft | 303 kts | 267° |
| 2026-04-28 12:20 | 0.68556 | 25.30576 | 5916 ft | 302 kts | 266° |
| 2026-04-28 12:21 | 0.68396 | 25.28501 | 5594 ft | 301 kts | 266° |
| 2026-04-28 12:21 | 0.68234 | 25.26415 | 5275 ft | 299 kts | 266° |
| 2026-04-28 12:21 | 0.68049 | 25.24376 | 4949 ft | 295 kts | 260° |
| 2026-04-28 12:21 | 0.67260 | 25.22544 | 4595 ft | 282 kts | 227° |
| 2026-04-28 12:22 | 0.65730 | 25.21483 | 4328 ft | 261 kts | 201° |
| 2026-04-28 12:22 | 0.64074 | 25.20820 | 4167 ft | 244 kts | 201° |
| 2026-04-28 12:22 | 0.62551 | 25.20192 | 4134 ft | 232 kts | 202° |
| 2026-04-28 12:22 | 0.61105 | 25.19565 | 4088 ft | 218 kts | 204° |
| 2026-04-28 12:23 | 0.59715 | 25.19112 | 4084 ft | 199 kts | 183° |
| 2026-04-28 12:23 | 0.58462 | 25.19399 | 3994 ft | 177 kts | 150° |
| 2026-04-28 12:23 | 0.57627 | 25.20173 | 3932 ft | 152 kts | 128° |
| 2026-04-28 12:23 | 0.57048 | 25.21010 | 3838 ft | 141 kts | 124° |
| 2026-04-28 12:24 | 0.56510 | 25.21822 | 3766 ft | 140 kts | 124° |
| 2026-04-28 12:24 | 0.55968 | 25.22631 | 3684 ft | 140 kts | 124° |
| 2026-04-28 12:24 | 0.55418 | 25.23442 | 3579 ft | 140 kts | 126° |
| 2026-04-28 12:24 | 0.54873 | 25.24236 | 3319 ft | 139 kts | 126° |
| 2026-04-28 12:25 | 0.54323 | 25.25034 | 3143 ft | 139 kts | 127° |
| 2026-04-28 12:25 | 0.53771 | 25.25827 | 2956 ft | 139 kts | 127° |
| 2026-04-28 12:25 | 0.53215 | 25.26621 | 2772 ft | 139 kts | 128° |
| 2026-04-28 12:25 | 0.52662 | 25.27410 | 2583 ft | 139 kts | 128° |
| 2026-04-28 12:26 | 0.52100 | 25.28211 | 2399 ft | 139 kts | 127° |
| 2026-04-28 12:26 | 0.51539 | 25.29010 | 2219 ft | 141 kts | 127° |
| 2026-04-28 12:26 | 0.50984 | 25.29809 | 2055 ft | 141 kts | 127° |
| 2026-04-28 12:26 | 0.50419 | 25.30613 | 1880 ft | 141 kts | 128° |
| 2026-04-28 12:27 | 0.49846 | 25.31417 | 1720 ft | 141 kts | 128° |
| 2026-04-28 12:27 | 0.49277 | 25.32216 | 1545 ft | 141 kts | 127° |
| 2026-04-28 12:27 | 0.48719 | 25.33007 | 1433 ft | 131 kts | 127° |
| 2026-04-28 12:27 | 0.48282 | 25.33625 | 1429 ft | 85 kts | 127° |
| 2026-04-28 12:28 | 0.48118 | 25.33854 | 1430 ft | 17 kts | 131° |
| 2026-04-28 12:28 | 0.48085 | 25.33911 | 1430 ft | 2 kts | 65° |
| 2026-04-28 12:28 | 0.48115 | 25.33899 | 1430 ft | 11 kts | 303° |
| 2026-04-28 12:28 | 0.48174 | 25.33810 | 1429 ft | 19 kts | 302° |
| 2026-04-28 12:29 | 0.48373 | 25.33505 | 1428 ft | 31 kts | 304° |
| 2026-04-28 12:29 | 0.48508 | 25.33311 | 1429 ft | 36 kts | 308° |
| 2026-04-28 12:29 | 0.48647 | 25.33117 | 1431 ft | 32 kts | 304° |
| 2026-04-28 12:30 | 0.48769 | 25.32941 | 1432 ft | 28 kts | 304° |
| 2026-04-28 12:30 | 0.48877 | 25.32788 | 1432 ft | 25 kts | 304° |
| 2026-04-28 12:30 | 0.48974 | 25.32647 | 1431 ft | 23 kts | 305° |
| 2026-04-28 12:30 | 0.49098 | 25.32554 | 1429 ft | 22 kts | 352° |
| 2026-04-28 12:31 | 0.49236 | 25.32609 | 1426 ft | 21 kts | 55° |
| 2026-04-28 12:31 | 0.49235 | 25.32745 | 1427 ft | 19 kts | 113° |
| 2026-04-28 12:31 | 0.49165 | 25.32848 | 1429 ft | 16 kts | 126° |
| 2026-04-28 12:31 | 0.49123 | 25.32922 | 1431 ft | 9 kts | 80° |
| 2026-04-28 12:32 | 0.49156 | 25.32955 | 1432 ft | 4 kts | 33° |
| 2026-04-28 12:32 | 0.49164 | 25.32960 | 1432 ft | 0 kts | 35° |